Latest Weather Observations for Norfolk Island

IDN60801

Issued at 8:03 pm EDT Thursday 19 October 2017 (issued every 30 minutes, with the page automatically refreshed every 10 minutes)

About weather observations | Map of weather stations | Latest weather observations for NSW | Other Formats
Station Details ID: 200288 Name: NORFOLK ISLAND AERO Lat: -29.04 Lon: 167.94 Height: 111.73 m
Data from the previous 72 hours. | See also: Recent months at Norfolk Island
Date/Time
EDT
Temp
°C
App
Temp
°C
Dew
Point
°C
Rel
Hum
%
Delta-T
°C
Wind Press
QNH
hPa
Press
MSL
hPa
Rain since
9am
mm
Dir  Spd
km/h
Gust
km/h
Spd
kts
Gust
kts
19/08:00pm 16.1 12.3 11.1 72 2.7 ESE 22 32 12 17 1024.1 1023.8 0.2
19/07:30pm 16.3 12.3 11.7 74 2.5 ESE 24 37 13 20 1024.0 1023.7 0.2
19/07:00pm 16.5 12.8 11.6 73 2.7 ESE 22 37 12 20 1023.7 1023.4 0.2
19/06:30pm 16.6 12.6 11.7 73 2.7 SE 24 41 13 22 1023.4 1023.1 0.2
19/06:00pm 16.6 13.4 11.3 71 2.9 ESE 19 32 10 17 1023.3 1023.0 0.2
19/05:30pm 16.8 13.5 10.9 68 3.2 ESE 19 35 10 19 1023.2 1022.9 0.2
19/05:00pm 17.0 13.6 11.1 68 3.2 ESE 20 32 11 17 1023.0 1022.7 0.2
19/04:30pm 17.2 13.4 11.0 67 3.4 ESE 22 35 12 19 1022.9 1022.6 0.2
19/04:00pm 18.0 14.3 11.6 66 3.5 ESE 22 39 12 21 1022.8 1022.5 0.2
19/03:30pm 17.7 12.9 11.5 67 3.4 SE 28 37 15 20 1022.8 1022.5 0.2
19/03:00pm 17.1 12.8 12.2 73 2.7 SE 26 43 14 23 1022.8 1022.5 0.2
19/02:30pm 17.6 13.6 13.1 75 2.5 ESE 26 41 14 22 1022.9 1022.6 0.2
19/02:00pm 17.5 13.4 12.6 73 2.7 SE 26 39 14 21 1023.3 1023.0 0.2
19/01:30pm 18.1 13.7 13.0 72 2.9 SE 28 41 15 22 1023.8 1023.5 0.0
19/01:00pm 17.4 13.6 13.5 78 2.2 ESE 26 41 14 22 1024.0 1023.7 0.0
19/12:30pm 18.0 14.2 12.5 70 3.1 SE 24 39 13 21 1024.5 1024.2 0.0
19/12:23pm 17.6 14.6 12.7 73 2.7 SE 20 33 11 18 1024.5 1024.2 0.0
19/12:00pm 15.9 11.7 13.6 86 1.3 SE 28 48 15 26 1024.9 1024.7 0.0
19/11:30am 17.2 13.4 12.5 74 2.6 SE 24 33 13 18 1024.8 1024.6 0.0
19/11:00am 17.7 13.5 12.4 71 2.9 SE 26 41 14 22 1025.1 1024.9 0.0
19/10:30am 17.0 13.8 13.1 78 2.2 ESE 22 33 12 18 1025.0 1024.8 0.0
19/10:00am 16.4 12.6 13.7 84 1.5 SE 26 37 14 20 1025.1 1024.9 0.0
19/09:30am 16.2 12.9 13.9 86 1.3 ESE 24 39 13 21 1025.2 1025.0 0.0
19/09:00am 17.1 13.1 13.0 77 2.3 SSE 26 35 14 19 1025.3 1025.1 0.0
19/08:30am 16.3 13.6 13.6 84 1.5 ESE 20 32 11 17 1025.4 1025.2 0.0
19/08:00am 15.9 12.5 13.6 86 1.3 SE 24 44 13 24 1025.3 1025.1 0.0
19/07:30am 16.7 12.6 11.6 72 2.8 SE 24 37 13 20 1025.1 1024.9 0.0
19/07:00am 15.8 13.2 13.1 84 1.5 SE 19 28 10 15 1025.2 1025.0 0.0
19/06:49am 15.7 13.3 13.9 89 1.0 SSE 19 32 10 17 1025.2 1025.0 0.0
19/06:44am 15.2 12.8 13.7 91 0.8 SSE 19 30 10 16 1025.3 1025.1 0.0
19/06:30am 14.3 10.4 13.2 93 0.6 SSE 26 41 14 22 1025.4 1025.2 0.0
19/06:21am 14.7 10.9 13.6 93 0.6 SSE 26 43 14 23 1025.3 1025.1 0.0
19/06:14am 15.1 11.7 13.6 91 0.8 SE 24 35 13 19 1025.3 1025.1 0.0
19/06:00am 16.2 12.7 10.9 71 2.8 SE 20 35 11 19 1024.9 1024.7 0.0
19/05:30am 16.1 12.5 10.4 69 3.0 SE 20 33 11 18 1024.7 1024.4 0.0
19/05:00am 16.3 11.8 10.2 67 3.2 SE 24 35 13 19 1024.4 1024.1 0.0
19/04:30am 16.3 11.7 9.7 65 3.5 SE 24 35 13 19 1024.3 1024.0 0.0
19/04:00am 16.4 11.6 10.3 67 3.2 SE 26 35 14 19 1024.1 1023.8 0.0
19/03:30am 16.3 11.8 9.9 66 3.4 SE 24 35 13 19 1024.0 1023.7 0.0
19/03:00am 16.5 11.9 11.0 70 3.0 SE 26 41 14 22 1024.0 1023.7 0.0
19/02:30am 16.5 12.7 11.2 71 2.9 SE 22 33 12 18 1024.3 1024.0 0.0
19/02:00am 16.5 12.4 11.4 72 2.8 SE 24 37 13 20 1024.6 1024.3 0.0
19/01:30am 16.3 11.5 11.7 74 2.5 SE 28 43 15 23 1024.8 1024.6 0.0
19/01:00am 16.5 12.3 11.2 71 2.9 SE 24 35 13 19 1025.2 1025.0 0.0
19/12:30am 16.1 11.6 10.0 67 3.2 SE 24 37 13 20 1025.7 1025.5 0.0
19/12:00am 16.3 11.5 11.5 73 2.6 SE 28 43 15 23 1025.9 1025.7 0.0
 
Date/Time
EDT
Temp
°C
App
Temp
°C
Dew
Point
°C
Rel
Hum
%
Delta-T
°C
Wind Press
QNH
hPa
Press
MSL
hPa
Rain since
9am
mm
Dir  Spd
km/h
Gust
km/h
Spd
kts
Gust
kts
18/11:30pm 16.1 11.7 10.4 69 3.0 SE 24 33 13 18 1026.0 1025.8 0.0
18/11:00pm 16.5 11.5 10.8 69 3.0 SE 28 41 15 22 1026.2 1026.0 0.0
18/10:30pm 16.8 12.6 12.5 76 2.4 SSE 26 35 14 19 1026.4 1026.2 0.0
18/10:00pm 16.6 12.2 10.5 67 3.2 SE 24 35 13 19 1026.3 1026.1 0.0
18/09:30pm 16.1 13.1 12.7 80 1.9 SE 20 32 11 17 1026.3 1026.1 0.0
18/09:00pm 16.2 12.4 12.4 78 2.1 SE 24 41 13 22 1026.1 1025.9 0.0
18/08:30pm 16.2 12.9 12.9 81 1.8 SE 22 39 12 21 1026.3 1026.1 0.0
18/08:00pm 16.1 13.1 12.1 77 2.2 SE 19 32 10 17 1026.0 1025.8 0.0
18/07:30pm 16.1 12.5 13.0 82 1.7 SE 24 44 13 24 1026.0 1025.8 0.0
18/07:00pm 16.7 12.8 12.0 74 2.6 SE 24 37 13 20 1025.8 1025.6 0.0
18/06:30pm 16.7 12.2 9.9 64 3.6 SE 24 37 13 20 1025.5 1025.3 0.0
18/06:00pm 16.7 12.5 11.0 69 3.1 SE 24 37 13 20 1025.1 1024.9 0.0
18/05:30pm 16.7 13.3 11.4 71 2.9 SE 20 30 11 16 1025.0 1024.8 0.0
18/05:00pm 16.7 12.6 12.7 77 2.2 SE 26 37 14 20 1024.8 1024.6 0.0
18/04:30pm 16.7 13.5 11.8 73 2.7 SE 20 33 11 18 1024.7 1024.4 0.0
18/04:00pm 17.0 13.6 11.3 69 3.1 SE 20 33 11 18 1024.5 1024.2 0.0
18/03:30pm 17.1 13.3 12.4 74 2.6 SE 24 37 13 20 1024.4 1024.1 0.0
18/03:00pm 17.5 14.1 11.1 66 3.5 SE 20 33 11 18 1024.4 1024.1 0.0
18/02:30pm 17.6 13.8 12.3 71 2.9 SE 24 37 13 20 1024.3 1024.0 0.0
18/02:00pm 17.6 13.7 12.1 70 3.0 SE 24 37 13 20 1024.4 1024.1 0.0
18/01:30pm 17.8 13.0 11.8 68 3.3 SE 28 41 15 22 1024.8 1024.6 0.0
18/01:00pm 18.4 14.0 11.7 65 3.7 SE 26 35 14 19 1024.9 1024.7 0.0
18/12:30pm 17.5 13.5 11.8 69 3.1 SE 24 37 13 20 1025.3 1025.1 0.0
18/12:00pm 18.3 14.1 11.1 63 3.9 SE 24 35 13 19 1025.6 1025.4 0.0
18/11:30am 17.6 12.5 10.5 63 3.8 SE 28 39 15 21 1025.9 1025.7 0.0
18/11:00am 17.6 13.0 11.2 66 3.5 SE 26 37 14 20 1026.1 1025.9 0.0
18/10:30am 17.5 13.2 12.0 70 3.0 SE 26 39 14 21 1026.0 1025.8 0.0
18/10:00am 17.5 12.9 10.9 65 3.6 SE 26 35 14 19 1026.4 1026.2 0.0
18/09:30am 17.8 13.2 10.9 64 3.7 SE 26 37 14 20 1026.2 1026.0 0.0
18/09:00am 17.3 13.9 11.1 67 3.3 SE 20 32 11 17 1026.1 1025.9 0.0
18/08:30am 16.7 12.1 11.2 70 3.0 SE 26 41 14 22 1026.2 1026.0 0.0
18/08:00am 16.0 12.4 12.9 82 1.7 SSE 24 37 13 20 1026.0 1025.8 0.0
18/07:30am 16.2 12.5 12.6 79 2.0 SE 24 37 13 20 1025.9 1025.7 0.0
18/07:00am 16.2 13.0 11.4 73 2.6 ESE 19 33 10 18 1025.6 1025.4 0.0
18/06:30am 15.9 12.6 11.5 75 2.4 SE 20 33 11 18 1025.4 1025.2 0.0
18/06:00am 16.3 11.8 9.9 66 3.4 SE 24 35 13 19 1025.1 1024.9 0.0
18/05:30am 15.9 12.9 12.1 78 2.1 SE 19 28 10 15 1024.7 1024.4 0.0
18/05:00am 15.9 12.0 12.1 78 2.1 SE 24 32 13 17 1024.5 1024.2 0.0
18/04:30am 15.7 11.9 12.5 81 1.8 SE 24 37 13 20 1024.5 1024.2 0.0
18/04:00am 16.3 13.0 10.8 70 2.9 SE 19 28 10 15 1024.2 1023.9 0.0
18/03:30am 16.2 12.5 10.1 67 3.2 SE 20 30 11 16 1024.1 1023.8 0.0
18/03:00am 16.2 12.7 10.3 68 3.1 SE 19 33 10 18 1024.2 1023.9 0.0
18/02:30am 16.2 11.7 10.1 67 3.2 SE 24 37 13 20 1024.4 1024.1 0.0
18/02:00am 16.2 13.1 11.6 74 2.5 SE 19 30 10 16 1024.5 1024.2 0.0
18/01:30am 16.4 12.8 10.0 66 3.4 SE 19 30 10 16 1024.5 1024.2 0.0
18/01:00am 16.3 13.7 10.8 70 2.9 ESE 15 24 8 13 1024.6 1024.3 0.0
18/12:30am 16.3 13.2 10.2 67 3.2 ESE 17 28 9 15 1025.0 1024.8 0.0
18/12:00am 16.4 13.5 11.1 71 2.8 SE 17 30 9 16 1025.3 1025.1 0.0
 
Date/Time
EDT
Temp
°C
App
Temp
°C
Dew
Point
°C
Rel
Hum
%
Delta-T
°C
Wind Press
QNH
hPa
Press
MSL
hPa
Rain since
9am
mm
Dir  Spd
km/h
Gust
km/h
Spd
kts
Gust
kts
17/11:30pm 16.3 12.7 10.6 69 3.0 SE 20 33 11 18 1025.6 1025.4 0.0
17/11:00pm 16.4 12.8 10.5 68 3.1 SE 20 35 11 19 1025.6 1025.4 0.0
17/10:30pm 16.4 12.7 10.0 66 3.4 ESE 20 33 11 18 1025.6 1025.4 0.0
17/10:00pm 16.3 12.8 10.2 67 3.2 ESE 19 30 10 16 1025.7 1025.5 0.0
17/09:30pm 16.4 13.4 10.5 68 3.1 ESE 17 30 9 16 1025.7 1025.5 0.0
17/09:00pm 16.5 12.9 10.4 67 3.2 SE 20 32 11 17 1025.9 1025.7 0.0
17/08:30pm 16.4 13.1 11.6 73 2.6 ESE 20 35 11 19 1026.0 1025.8 0.0
17/08:00pm 16.7 13.2 10.3 66 3.4 ESE 19 30 10 16 1025.9 1025.7 0.0
17/07:30pm 16.6 12.9 10.2 66 3.4 ESE 20 35 11 19 1025.7 1025.5 0.0
17/07:00pm 16.7 13.0 10.3 66 3.4 SE 20 33 11 18 1025.3 1025.1 0.0
17/06:30pm 16.5 12.9 10.4 67 3.2 ESE 20 32 11 17 1025.2 1025.0 0.0
17/06:00pm 16.5 12.7 9.9 65 3.5 ESE 20 30 11 16 1025.0 1024.8 0.0
17/05:30pm 16.6 12.5 10.2 66 3.4 SE 22 35 12 19 1024.5 1024.2 0.0
17/05:00pm 16.8 12.9 10.9 68 3.2 SE 22 35 12 19 1024.2 1023.9 0.0
17/04:30pm 16.7 11.8 11.4 71 2.9 SE 28 41 15 22 1024.0 1023.7 0.0
17/04:00pm 16.8 13.3 12.1 74 2.6 SE 22 33 12 18 1023.9 1023.6 0.0
17/03:30pm 17.1 13.4 11.6 70 3.0 SE 22 32 12 17 1023.9 1023.6 0.0
17/03:00pm 17.7 14.2 11.0 65 3.6 ESE 20 35 11 19 1023.8 1023.5 0.0
17/02:30pm 18.2 14.9 11.5 65 3.7 SE 20 28 11 15 1024.1 1023.8 0.0
17/02:00pm 18.4 14.6 11.0 62 4.0 ESE 22 35 12 19 1024.3 1024.0 0.0
17/01:30pm 18.8 14.9 12.1 65 3.7 ESE 24 37 13 20 1024.7 1024.4 0.0
17/01:00pm 19.2 16.0 12.0 63 4.0 ESE 20 35 11 19 1025.1 1024.9 0.0
17/12:30pm 18.1 15.0 12.1 68 3.3 ESE 20 33 11 18 1025.2 1025.0 0.0
17/12:00pm 18.6 14.4 11.2 62 4.0 ESE 24 39 13 21 1025.4 1025.2 0.0
17/11:30am 19.6 15.8 12.4 63 4.1 ESE 24 41 13 22 1025.3 1025.1 0.0
17/11:00am 19.0 14.4 11.1 60 4.3 ESE 26 41 14 22 1025.2 1025.0 0.0
17/10:30am 18.2 13.7 11.3 64 3.8 ESE 26 43 14 23 1025.5 1025.3 0.0
17/10:00am 18.7 14.0 10.5 59 4.4 ESE 26 43 14 23 1025.5 1025.3 0.0
17/09:30am 17.1 12.8 10.7 66 3.4 ESE 24 37 13 20 1025.6 1025.4 0.0
17/09:00am 17.3 13.0 10.9 66 3.4 ESE 24 32 13 17 1025.7 1025.5 0.0
17/08:30am 17.3 12.8 10.2 63 3.8 ESE 24 35 13 19 1025.7 1025.5 0.0
17/08:00am 16.9 13.2 10.3 65 3.5 ESE 20 33 11 18 1025.7 1025.5 0.0
17/07:30am 16.5 12.4 10.1 66 3.4 ESE 22 33 12 18 1025.7 1025.5 0.0
17/07:00am 16.4 11.5 10.0 66 3.4 E 26 39 14 21 1025.4 1025.2 0.0
17/06:30am 15.8 11.6 9.7 67 3.2 ESE 22 35 12 19 1025.2 1025.0 0.0
17/06:00am 15.9 11.3 9.8 67 3.2 ESE 24 39 13 21 1024.6 1024.3 0.0
17/05:30am 15.9 12.2 10.0 68 3.1 E 20 33 11 18 1024.2 1023.9 0.0
17/05:00am 15.9 12.1 9.8 67 3.2 ESE 20 33 11 18 1023.9 1023.6 0.0
17/04:30am 15.8 11.2 9.5 66 3.3 ESE 24 39 13 21 1023.5 1023.2 0.0
17/04:00am 15.8 11.6 9.9 68 3.1 ESE 22 33 12 18 1023.5 1023.2 0.0
17/03:30am 15.9 12.2 10.2 69 3.0 E 20 30 11 16 1023.6 1023.3 0.0
17/03:00am 15.8 11.7 10.1 69 3.0 E 22 33 12 18 1023.6 1023.3 0.0
17/02:30am 15.5 11.6 9.6 68 3.1 E 20 30 11 16 1023.7 1023.4 0.0
17/02:00am 15.5 10.9 9.6 68 3.1 E 24 35 13 19 1023.7 1023.4 0.0
17/01:30am 15.8 11.2 9.7 67 3.2 ESE 24 35 13 19 1023.8 1023.5 0.0
17/01:00am 15.7 11.1 9.8 68 3.1 ESE 24 33 13 18 1024.1 1023.8 0.0
17/12:30am 16.3 12.8 10.8 70 2.9 ESE 20 33 11 18 1024.4 1024.1 0.0
17/12:00am 16.0 11.1 9.9 67 3.2 E 26 41 14 22 1024.6 1024.3 0.0
 
Date/Time
EDT
Temp
°C
App
Temp
°C
Dew
Point
°C
Rel
Hum
%
Delta-T
°C
Wind Press
QNH
hPa
Press
MSL
hPa
Rain since
9am
mm
Dir  Spd
km/h
Gust
km/h
Spd
kts
Gust
kts
16/11:30pm 16.2 12.7 10.3 68 3.1 ESE 19 32 10 17 1025.1 1024.9 0.0
16/11:00pm 16.4 11.7 10.7 69 3.0 ESE 26 39 14 21 1024.8 1024.6 0.0
16/10:30pm 16.5 12.2 10.6 68 3.2 ESE 24 39 13 21 1025.0 1024.8 0.0
16/10:00pm 16.5 12.3 11.2 71 2.9 ESE 24 37 13 20 1024.8 1024.6 0.0
16/09:30pm 16.4 11.8 10.9 70 3.0 ESE 26 33 14 18 1024.9 1024.7 0.0
16/09:00pm 16.6 12.9 12.6 77 2.2 ESE 24 37 13 20 1025.2 1025.0 0.0
16/08:30pm 16.7 13.0 12.7 77 2.2 ESE 24 37 13 20 1025.2 1025.0 0.0
16/08:00pm 16.7 13.4 12.7 77 2.2 ESE 22 33 12 18 1025.0 1024.8 0.0

Other Formats:

Comma delimited format used in spreadsheet applications
http://www.bom.gov.au/fwo/IDN60801/IDN60801.94996.axf

JavaScript Object Notation format (JSON) in row-major order
http://www.bom.gov.au/fwo/IDN60801/IDN60801.94996.json